sensor_id;sensor_type;location;lat;lon;timestamp;pressure;altitude;pressure_sealevel;temperature;humidity
46836;BME280;32573;51.290;6.926;2022-07-01T00:00:43;100092.81;;;15.66;100.00
46836;BME280;32573;51.290;6.926;2022-07-01T00:03:11;100090.16;;;15.63;100.00
46836;BME280;32573;51.290;6.926;2022-07-01T00:05:42;100090.13;;;15.62;100.00
46836;BME280;32573;51.290;6.926;2022-07-01T00:08:11;100079.56;;;15.62;100.00
46836;BME280;32573;51.290;6.926;2022-07-01T00:10:41;100084.84;;;15.59;100.00
46836;BME280;32573;51.290;6.926;2022-07-01T00:13:09;100082.16;;;15.54;100.00
46836;BME280;32573;51.290;6.926;2022-07-01T00:15:38;100085.66;;;15.48;100.00
46836;BME280;32573;51.290;6.926;2022-07-01T00:18:08;100093.56;;;15.47;100.00
46836;BME280;32573;51.290;6.926;2022-07-01T00:20:36;100093.56;;;15.47;100.00
46836;BME280;32573;51.290;6.926;2022-07-01T00:23:05;100084.75;;;15.43;100.00
46836;BME280;32573;51.290;6.926;2022-07-01T00:25:33;100085.59;;;15.42;100.00
46836;BME280;32573;51.290;6.926;2022-07-01T00:28:03;100078.59;;;15.43;100.00
46836;BME280;32573;51.290;6.926;2022-07-01T00:30:34;100084.72;;;15.42;100.00
46836;BME280;32573;51.290;6.926;2022-07-01T00:33:03;100090.88;;;15.42;100.00
46836;BME280;32573;51.290;6.926;2022-07-01T00:35:32;100096.13;;;15.36;100.00
46836;BME280;32573;51.290;6.926;2022-07-01T00:38:03;100092.59;;;15.34;100.00
46836;BME280;32573;51.290;6.926;2022-07-01T00:40:34;100094.38;;;15.35;100.00
46836;BME280;32573;51.290;6.926;2022-07-01T00:43:04;100092.63;;;15.36;100.00
46836;BME280;32573;51.290;6.926;2022-07-01T00:45:33;100099.63;;;15.37;100.00
46836;BME280;32573;51.290;6.926;2022-07-01T00:48:01;100100.50;;;15.37;100.00
46836;BME280;32573;51.290;6.926;2022-07-01T00:50:30;100098.75;;;15.35;100.00
46836;BME280;32573;51.290;6.926;2022-07-01T00:52:59;100105.78;;;15.32;100.00
46836;BME280;32573;51.290;6.926;2022-07-01T00:55:27;100112.78;;;15.30;100.00
46836;BME280;32573;51.290;6.926;2022-07-01T00:57:55;100111.00;;;15.28;100.00
46836;BME280;32573;51.290;6.926;2022-07-01T01:00:25;100112.75;;;15.27;100.00
46836;BME280;32573;51.290;6.926;2022-07-01T01:02:57;100115.41;;;15.29;100.00
46836;BME280;32573;51.290;6.926;2022-07-01T01:05:25;100104.84;;;15.29;100.00
46836;BME280;32573;51.290;6.926;2022-07-01T01:07:54;100102.19;;;15.27;100.00
46836;BME280;32573;51.290;6.926;2022-07-01T01:10:24;100112.75;;;15.27;100.00
46836;BME280;32573;51.290;6.926;2022-07-01T01:12:53;100109.25;;;15.28;100.00
46836;BME280;32573;51.290;6.926;2022-07-01T01:15:23;100125.97;;;15.29;100.00
46836;BME280;32573;51.290;6.926;2022-07-01T01:17:56;100118.03;;;15.27;100.00
46836;BME280;32573;51.290;6.926;2022-07-01T01:20:32;100128.56;;;15.27;100.00
46836;BME280;32573;51.290;6.926;2022-07-01T01:23:01;100136.50;;;15.26;100.00
46836;BME280;32573;51.290;6.926;2022-07-01T01:25:31;100149.66;;;15.24;100.00
46836;BME280;32573;51.290;6.926;2022-07-01T01:28:02;100147.00;;;15.24;100.00
46836;BME280;32573;51.290;6.926;2022-07-01T01:30:31;100154.94;;;15.24;100.00
46836;BME280;32573;51.290;6.926;2022-07-01T01:32:59;100151.38;;;15.22;100.00
46836;BME280;32573;51.290;6.926;2022-07-01T01:35:28;100159.31;;;15.21;100.00
46836;BME280;32573;51.290;6.926;2022-07-01T01:37:58;100159.31;;;15.21;100.00
46836;BME280;32573;51.290;6.926;2022-07-01T01:40:26;100163.69;;;15.20;100.00
46836;BME280;32573;51.290;6.926;2022-07-01T01:42:55;100155.78;;;15.20;100.00
46836;BME280;32573;51.290;6.926;2022-07-01T01:45:26;100153.16;;;15.20;100.00
46836;BME280;32573;51.290;6.926;2022-07-01T01:47:55;100159.28;;;15.19;100.00
46836;BME280;32573;51.290;6.926;2022-07-01T01:50:23;100159.31;;;15.21;100.00
46836;BME280;32573;51.290;6.926;2022-07-01T01:52:54;100161.91;;;15.19;100.00
46836;BME280;32573;51.290;6.926;2022-07-01T01:55:24;100170.69;;;15.18;100.00
46836;BME280;32573;51.290;6.926;2022-07-01T01:57:55;100158.38;;;15.17;100.00
46836;BME280;32573;51.290;6.926;2022-07-01T02:00:26;100155.72;;;15.17;100.00
46836;BME280;32573;51.290;6.926;2022-07-01T02:02:55;100175.03;;;15.15;100.00
46836;BME280;32573;51.290;6.926;2022-07-01T02:05:38;100168.88;;;15.11;100.00
46836;BME280;32573;51.290;6.926;2022-07-01T02:08:13;100159.16;;;15.07;100.00
46836;BME280;32573;51.290;6.926;2022-07-01T02:10:44;100167.91;;;15.04;100.00
46836;BME280;32573;51.290;6.926;2022-07-01T02:13:13;100170.56;;;15.03;100.00
46836;BME280;32573;51.290;6.926;2022-07-01T02:15:42;100177.56;;;15.01;100.00
46836;BME280;32573;51.290;6.926;2022-07-01T02:18:11;100168.75;;;14.99;100.00
46836;BME280;32573;51.290;6.926;2022-07-01T02:20:39;100172.28;;;14.98;100.00
46836;BME280;32573;51.290;6.926;2022-07-01T02:23:08;100174.03;;;14.99;100.00
46836;BME280;32573;51.290;6.926;2022-07-01T02:25:39;100179.28;;;14.99;100.00
46836;BME280;32573;51.290;6.926;2022-07-01T02:28:12;100191.59;;;14.98;100.00
46836;BME280;32573;51.290;6.926;2022-07-01T02:30:40;100199.47;;;14.97;100.00
46836;BME280;32573;51.290;6.926;2022-07-01T02:33:09;100195.09;;;14.96;100.00
46836;BME280;32573;51.290;6.926;2022-07-01T02:35:39;100195.94;;;14.95;100.00
46836;BME280;32573;51.290;6.926;2022-07-01T02:38:12;100182.75;;;14.95;100.00
46836;BME280;32573;51.290;6.926;2022-07-01T02:40:40;100193.31;;;14.95;100.00
46836;BME280;32573;51.290;6.926;2022-07-01T02:43:10;100189.78;;;14.93;100.00
46836;BME280;32573;51.290;6.926;2022-07-01T02:45:38;100201.22;;;14.93;100.00
46836;BME280;32573;51.290;6.926;2022-07-01T02:48:07;100193.31;;;14.93;100.00
46836;BME280;32573;51.290;6.926;2022-07-01T02:50:35;100199.47;;;14.94;100.00
46836;BME280;32573;51.290;6.926;2022-07-01T02:53:03;100217.91;;;14.94;100.00
46836;BME280;32573;51.290;6.926;2022-07-01T02:55:32;100226.72;;;14.96;100.00
46836;BME280;32573;51.290;6.926;2022-07-01T02:58:00;100233.72;;;14.94;100.00
46836;BME280;32573;51.290;6.926;2022-07-01T03:00:32;100239.88;;;14.94;100.00
46836;BME280;32573;51.290;6.926;2022-07-01T03:03:01;100231.97;;;14.93;100.00
46836;BME280;32573;51.290;6.926;2022-07-01T03:05:29;100231.09;;;14.94;100.00
46836;BME280;32573;51.290;6.926;2022-07-01T03:07:57;100233.72;;;14.94;100.00
46836;BME280;32573;51.290;6.926;2022-07-01T03:10:28;100244.25;;;14.94;100.00
46836;BME280;32573;51.290;6.926;2022-07-01T03:12:56;100243.38;;;14.93;100.00
46836;BME280;32573;51.290;6.926;2022-07-01T03:15:26;100243.38;;;14.93;100.00
46836;BME280;32573;51.290;6.926;2022-07-01T03:17:56;100252.16;;;14.94;100.00
46836;BME280;32573;51.290;6.926;2022-07-01T03:20:25;100252.22;;;14.95;100.00
46836;BME280;32573;51.290;6.926;2022-07-01T03:22:53;100258.34;;;14.96;100.00
46836;BME280;32573;51.290;6.926;2022-07-01T03:25:21;100263.63;;;14.96;100.00
46836;BME280;32573;51.290;6.926;2022-07-01T03:27:50;100272.44;;;14.98;100.00
46836;BME280;32573;51.290;6.926;2022-07-01T03:30:18;100268.06;;;14.98;100.00
46836;BME280;32573;51.290;6.926;2022-07-01T03:32:46;100256.63;;;14.98;100.00
46836;BME280;32573;51.290;6.926;2022-07-01T03:35:16;100252.22;;;15.00;100.00
46836;BME280;32573;51.290;6.926;2022-07-01T03:38:02;100240.81;;;14.99;100.00
46836;BME280;32573;51.290;6.926;2022-07-01T03:40:31;100248.72;;;14.99;100.00
46836;BME280;32573;51.290;6.926;2022-07-01T03:43:00;100254.84;;;14.97;100.00
46836;BME280;32573;51.290;6.926;2022-07-01T03:45:32;100247.81;;;14.96;100.00
46836;BME280;32573;51.290;6.926;2022-07-01T03:48:01;100256.56;;;14.95;100.00
46836;BME280;32573;51.290;6.926;2022-07-01T03:50:31;100255.69;;;14.93;100.00
46836;BME280;32573;51.290;6.926;2022-07-01T03:53:01;100258.31;;;14.94;100.00
46836;BME280;32573;51.290;6.926;2022-07-01T03:55:47;100265.34;;;14.94;100.00
46836;BME280;32573;51.290;6.926;2022-07-01T03:58:16;100265.38;;;14.95;100.00
46836;BME280;32573;51.290;6.926;2022-07-01T04:00:44;100266.25;;;14.96;100.00
46836;BME280;32573;51.290;6.926;2022-07-01T04:03:15;100266.25;;;14.97;100.00
46836;BME280;32573;51.290;6.926;2022-07-01T04:05:45;100246.91;;;14.94;100.00
46836;BME280;32573;51.290;6.926;2022-07-01T04:08:14;100237.25;;;14.93;100.00
46836;BME280;32573;51.290;6.926;2022-07-01T04:10:42;100238.13;;;14.95;100.00
46836;BME280;32573;51.290;6.926;2022-07-01T04:13:11;100247.81;;;14.96;100.00
46836;BME280;32573;51.290;6.926;2022-07-01T04:15:58;100240.81;;;14.98;100.00
46836;BME280;32573;51.290;6.926;2022-07-01T04:18:28;100255.78;;;15.00;100.00
46836;BME280;32573;51.290;6.926;2022-07-01T04:20:59;100242.59;;;15.02;100.00
46836;BME280;32573;51.290;6.926;2022-07-01T04:23:45;100247.88;;;15.02;100.00
46836;BME280;32573;51.290;6.926;2022-07-01T04:26:14;100249.66;;;15.04;100.00
46836;BME280;32573;51.290;6.926;2022-07-01T04:29:04;100246.13;;;15.04;100.00
46836;BME280;32573;51.290;6.926;2022-07-01T04:31:33;100253.16;;;15.05;100.00
46836;BME280;32573;51.290;6.926;2022-07-01T04:34:01;100253.16;;;15.05;100.00
46836;BME280;32573;51.290;6.926;2022-07-01T04:36:31;100261.97;;;15.05;100.00
46836;BME280;32573;51.290;6.926;2022-07-01T04:39:02;100260.19;;;15.03;100.00
46836;BME280;32573;51.290;6.926;2022-07-01T04:41:33;100259.28;;;15.02;100.00
46836;BME280;32573;51.290;6.926;2022-07-01T04:44:19;100260.19;;;15.03;100.00
46836;BME280;32573;51.290;6.926;2022-07-01T04:46:48;100263.69;;;15.02;100.00
46836;BME280;32573;51.290;6.926;2022-07-01T04:49:16;100271.59;;;15.02;100.00
46836;BME280;32573;51.290;6.926;2022-07-01T04:51:46;100254.00;;;15.02;100.00
46836;BME280;32573;51.290;6.926;2022-07-01T04:54:15;100254.00;;;15.02;100.00
46836;BME280;32573;51.290;6.926;2022-07-01T04:56:47;100256.66;;;15.01;100.00
46836;BME280;32573;51.290;6.926;2022-07-01T04:59:15;100240.84;;;15.01;100.00
46836;BME280;32573;51.290;6.926;2022-07-01T05:01:44;100245.22;;;15.00;100.00
46836;BME280;32573;51.290;6.926;2022-07-01T05:04:16;100254.00;;;15.01;100.00
46836;BME280;32573;51.290;6.926;2022-07-01T05:06:47;100232.03;;;15.02;100.00
46836;BME280;32573;51.290;6.926;2022-07-01T05:09:15;100222.34;;;14.98;100.00
46836;BME280;32573;51.290;6.926;2022-07-01T05:11:43;100223.22;;;15.00;100.00
46836;BME280;32573;51.290;6.926;2022-07-01T05:14:12;100225.88;;;15.00;100.00
46836;BME280;32573;51.290;6.926;2022-07-01T05:16:40;100227.66;;;15.02;100.00
46836;BME280;32573;51.290;6.926;2022-07-01T05:19:10;100232.97;;;15.05;100.00
46836;BME280;32573;51.290;6.926;2022-07-01T05:21:57;100227.72;;;15.07;100.00
46836;BME280;32573;51.290;6.926;2022-07-01T05:24:30;100231.22;;;15.06;100.00
46836;BME280;32573;51.290;6.926;2022-07-01T05:27:00;100226.78;;;15.05;100.00
46836;BME280;32573;51.290;6.926;2022-07-01T05:29:29;100229.41;;;15.02;100.00
46836;BME280;32573;51.290;6.926;2022-07-01T05:31:57;100232.94;;;15.01;100.00
46836;BME280;32573;51.290;6.926;2022-07-01T05:34:25;100225.91;;;15.01;100.00
46836;BME280;32573;51.290;6.926;2022-07-01T05:36:54;100218.88;;;15.00;100.00
46836;BME280;32573;51.290;6.926;2022-07-01T05:39:24;100216.19;;;14.99;100.00
46836;BME280;32573;51.290;6.926;2022-07-01T05:41:52;100216.19;;;14.99;100.00
46836;BME280;32573;51.290;6.926;2022-07-01T05:44:21;100217.97;;;15.00;100.00
46836;BME280;32573;51.290;6.926;2022-07-01T05:46:50;100228.50;;;15.00;100.00
46836;BME280;32573;51.290;6.926;2022-07-01T05:49:18;100233.78;;;15.00;100.00
46836;BME280;32573;51.290;6.926;2022-07-01T05:51:47;100246.09;;;15.02;100.00
46836;BME280;32573;51.290;6.926;2022-07-01T05:54:15;100253.13;;;15.02;100.00
46836;BME280;32573;51.290;6.926;2022-07-01T05:56:45;100265.47;;;15.04;100.00
46836;BME280;32573;51.290;6.926;2022-07-01T05:59:14;100268.09;;;15.03;100.00
46836;BME280;32573;51.290;6.926;2022-07-01T06:01:45;100268.97;;;15.00;100.00
46836;BME280;32573;51.290;6.926;2022-07-01T06:04:14;100270.69;;;15.00;100.00
46836;BME280;32573;51.290;6.926;2022-07-01T06:06:43;100274.19;;;14.99;100.00
46836;BME280;32573;51.290;6.926;2022-07-01T06:09:11;100282.16;;;15.03;100.00
46836;BME280;32573;51.290;6.926;2022-07-01T06:11:40;100276.91;;;15.06;100.00
46836;BME280;32573;51.290;6.926;2022-07-01T06:14:09;100277.88;;;15.13;100.00
46836;BME280;32573;51.290;6.926;2022-07-01T06:16:38;100275.25;;;15.15;100.00
46836;BME280;32573;51.290;6.926;2022-07-01T06:19:06;100281.44;;;15.17;100.00
46836;BME280;32573;51.290;6.926;2022-07-01T06:21:34;100262.97;;;15.17;100.00
46836;BME280;32573;51.290;6.926;2022-07-01T06:24:04;100268.25;;;15.20;100.00
46836;BME280;32573;51.290;6.926;2022-07-01T06:26:32;100260.44;;;15.26;100.00
46836;BME280;32573;51.290;6.926;2022-07-01T06:29:03;100267.56;;;15.33;100.00
46836;BME280;32573;51.290;6.926;2022-07-01T06:31:33;100271.09;;;15.35;100.00
46836;BME280;32573;51.290;6.926;2022-07-01T06:34:04;100271.09;;;15.37;100.00
46836;BME280;32573;51.290;6.926;2022-07-01T06:36:33;100279.94;;;15.42;100.00
46836;BME280;32573;51.290;6.926;2022-07-01T06:39:01;100300.19;;;15.43;100.00
46836;BME280;32573;51.290;6.926;2022-07-01T06:41:29;100301.06;;;15.45;100.00
46836;BME280;32573;51.290;6.926;2022-07-01T06:43:59;100299.31;;;15.47;100.00
46836;BME280;32573;51.290;6.926;2022-07-01T06:46:29;100295.88;;;15.51;100.00
46836;BME280;32573;51.290;6.926;2022-07-01T06:49:01;100301.16;;;15.54;100.00
46836;BME280;32573;51.290;6.926;2022-07-01T06:51:30;100312.63;;;15.56;100.00
46836;BME280;32573;51.290;6.926;2022-07-01T06:53:59;100301.25;;;15.60;100.00
46836;BME280;32573;51.290;6.926;2022-07-01T06:56:27;100314.44;;;15.65;100.00
46836;BME280;32573;51.290;6.926;2022-07-01T06:58:56;100331.28;;;15.71;100.00
46836;BME280;32573;51.290;6.926;2022-07-01T07:01:24;100326.91;;;15.77;100.00
46836;BME280;32573;51.290;6.926;2022-07-01T07:03:56;100329.59;;;15.81;100.00
46836;BME280;32573;51.290;6.926;2022-07-01T07:06:30;100322.59;;;15.85;100.00
46836;BME280;32573;51.290;6.926;2022-07-01T07:08:58;100334.94;;;15.86;100.00
46836;BME280;32573;51.290;6.926;2022-07-01T07:11:30;100327.00;;;15.83;100.00
46836;BME280;32573;51.290;6.926;2022-07-01T07:13:58;100335.75;;;15.82;100.00
46836;BME280;32573;51.290;6.926;2022-07-01T07:16:27;100348.97;;;15.80;100.00
46836;BME280;32573;51.290;6.926;2022-07-01T07:18:55;100345.41;;;15.80;100.00
46836;BME280;32573;51.290;6.926;2022-07-01T07:21:26;100340.13;;;15.80;100.00
46836;BME280;32573;51.290;6.926;2022-07-01T07:23:56;100340.13;;;15.80;100.00
46836;BME280;32573;51.290;6.926;2022-07-01T07:26:24;100334.00;;;15.81;100.00
46836;BME280;32573;51.290;6.926;2022-07-01T07:28:56;100327.88;;;15.83;100.00
46836;BME280;32573;51.290;6.926;2022-07-01T07:31:24;100313.84;;;15.89;100.00
46836;BME280;32573;51.290;6.926;2022-07-01T07:33:55;100316.53;;;15.93;100.00
46836;BME280;32573;51.290;6.926;2022-07-01T07:36:25;100329.75;;;15.98;100.00
46836;BME280;32573;51.290;6.926;2022-07-01T07:38:55;100338.59;;;16.03;100.00
46836;BME280;32573;51.290;6.926;2022-07-01T07:41:26;100363.28;;;16.08;100.00
46836;BME280;32573;51.290;6.926;2022-07-01T07:43:57;100356.28;;;16.10;100.00
46836;BME280;32573;51.290;6.926;2022-07-01T07:46:25;100349.22;;;16.12;100.00
46836;BME280;32573;51.290;6.926;2022-07-01T07:48:56;100364.25;;;16.16;100.00
46836;BME280;32573;51.290;6.926;2022-07-01T07:51:25;100359.84;;;16.18;100.00
46836;BME280;32573;51.290;6.926;2022-07-01T07:53:53;100363.41;;;16.22;100.00
46836;BME280;32573;51.290;6.926;2022-07-01T07:56:23;100363.44;;;16.27;100.00
46836;BME280;32573;51.290;6.926;2022-07-01T07:58:51;100366.97;;;16.29;100.00
46836;BME280;32573;51.290;6.926;2022-07-01T08:01:20;100359.94;;;16.28;100.00
46836;BME280;32573;51.290;6.926;2022-07-01T08:03:49;100375.75;;;16.25;100.00
46836;BME280;32573;51.290;6.926;2022-07-01T08:06:17;100374.88;;;16.23;100.00
46836;BME280;32573;51.290;6.926;2022-07-01T08:08:46;100369.56;;;16.21;100.00
46836;BME280;32573;51.290;6.926;2022-07-01T08:11:14;100371.31;;;16.22;100.00
46836;BME280;32573;51.290;6.926;2022-07-01T08:13:44;100366.06;;;16.24;100.00
46836;BME280;32573;51.290;6.926;2022-07-01T08:16:13;100360.78;;;16.24;100.00
46836;BME280;32573;51.290;6.926;2022-07-01T08:18:41;100375.81;;;16.31;100.00
46836;BME280;32573;51.290;6.926;2022-07-01T08:21:10;100362.63;;;16.37;100.00
46836;BME280;32573;51.290;6.926;2022-07-01T08:23:38;100361.81;;;16.47;100.00
46836;BME280;32573;51.290;6.926;2022-07-01T08:26:07;100365.44;;;16.55;100.00
46836;BME280;32573;51.290;6.926;2022-07-01T08:28:38;100367.25;;;16.63;100.00
46836;BME280;32573;51.290;6.926;2022-07-01T08:31:16;100373.44;;;16.68;100.00
46836;BME280;32573;51.290;6.926;2022-07-01T08:33:47;100369.94;;;16.76;100.00
46836;BME280;32573;51.290;6.926;2022-07-01T08:36:15;100372.69;;;16.86;100.00
46836;BME280;32573;51.290;6.926;2022-07-01T08:38:48;100370.94;;;16.92;100.00
46836;BME280;32573;51.290;6.926;2022-07-01T08:41:22;100385.09;;;16.97;100.00
46836;BME280;32573;51.290;6.926;2022-07-01T08:43:55;100382.47;;;17.00;100.00
46836;BME280;32573;51.290;6.926;2022-07-01T08:46:27;100392.16;;;16.98;100.00
46836;BME280;32573;51.290;6.926;2022-07-01T08:48:57;100396.50;;;16.92;100.00
46836;BME280;32573;51.290;6.926;2022-07-01T08:51:28;100405.28;;;16.85;100.00
46836;BME280;32573;51.290;6.926;2022-07-01T08:54:01;100406.13;;;16.79;100.00
46836;BME280;32573;51.290;6.926;2022-07-01T08:56:31;100408.72;;;16.76;100.00
46836;BME280;32573;51.290;6.926;2022-07-01T08:59:22;100408.69;;;16.71;100.00
46836;BME280;32573;51.290;6.926;2022-07-01T09:02:00;100410.47;;;16.74;100.00
46836;BME280;32573;51.290;6.926;2022-07-01T09:04:35;100402.56;;;16.75;100.00
46836;BME280;32573;51.290;6.926;2022-07-01T09:07:06;100407.84;;;16.77;100.00
46836;BME280;32573;51.290;6.926;2022-07-01T09:09:38;100417.59;;;16.78;100.00
46836;BME280;32573;51.290;6.926;2022-07-01T09:12:15;100407.03;;;16.81;100.00
46836;BME280;32573;51.290;6.926;2022-07-01T09:14:46;100397.34;;;16.83;100.00
46836;BME280;32573;51.290;6.926;2022-07-01T09:17:21;100401.75;;;16.87;100.00
46836;BME280;32573;51.290;6.926;2022-07-01T09:19:55;100402.69;;;16.94;100.00
46836;BME280;32573;51.290;6.926;2022-07-01T09:22:23;100396.56;;;16.99;100.00
46836;BME280;32573;51.290;6.926;2022-07-01T09:24:54;100401.03;;;17.08;100.00
46836;BME280;32573;51.290;6.926;2022-07-01T09:27:25;100404.59;;;17.18;100.00
46836;BME280;32573;51.290;6.926;2022-07-01T09:29:56;100409.91;;;17.24;100.00
46836;BME280;32573;51.290;6.926;2022-07-01T09:32:27;100406.41;;;17.31;100.00
46836;BME280;32573;51.290;6.926;2022-07-01T09:35:01;100407.31;;;17.39;100.00
46836;BME280;32573;51.290;6.926;2022-07-01T09:37:30;100402.94;;;17.46;100.00
46836;BME280;32573;51.290;6.926;2022-07-01T09:39:58;100406.50;;;17.53;100.00
46836;BME280;32573;51.290;6.926;2022-07-01T09:42:27;100405.63;;;17.58;100.00
46836;BME280;32573;51.290;6.926;2022-07-01T09:44:57;100413.63;;;17.67;100.00
46836;BME280;32573;51.290;6.926;2022-07-01T09:47:35;100401.28;;;17.77;100.00
46836;BME280;32573;51.290;6.926;2022-07-01T09:50:05;100401.31;;;17.83;100.00
46836;BME280;32573;51.290;6.926;2022-07-01T09:52:34;100403.09;;;17.89;100.00
46836;BME280;32573;51.290;6.926;2022-07-01T09:55:07;100405.75;;;17.92;100.00
46836;BME280;32573;51.290;6.926;2022-07-01T09:57:38;100413.69;;;17.94;100.00
46836;BME280;32573;51.290;6.926;2022-07-01T10:00:21;100406.66;;;17.96;100.00
46836;BME280;32573;51.290;6.926;2022-07-01T10:02:51;100415.50;;;17.98;100.00
46836;BME280;32573;51.290;6.926;2022-07-01T10:05:22;100404.00;;;17.97;100.00
46836;BME280;32573;51.290;6.926;2022-07-01T10:08:10;100407.53;;;18.05;100.00
46836;BME280;32573;51.290;6.926;2022-07-01T10:10:50;100416.38;;;18.12;100.00
46836;BME280;32573;51.290;6.926;2022-07-01T10:13:27;100414.59;;;18.14;100.00
46836;BME280;32573;51.290;6.926;2022-07-01T10:16:05;100413.75;;;18.18;100.00
46836;BME280;32573;51.290;6.926;2022-07-01T10:18:40;100423.47;;;18.22;100.00
46836;BME280;32573;51.290;6.926;2022-07-01T10:21:25;100412.88;;;18.25;100.00
46836;BME280;32573;51.290;6.926;2022-07-01T10:24:11;100419.91;;;18.34;100.00
46836;BME280;32573;51.290;6.926;2022-07-01T10:26:44;100419.03;;;18.41;100.00
46836;BME280;32573;51.290;6.926;2022-07-01T10:29:33;100429.63;;;18.44;100.00
46836;BME280;32573;51.290;6.926;2022-07-01T10:32:08;100427.91;;;18.45;100.00
46836;BME280;32573;51.290;6.926;2022-07-01T10:34:41;100429.66;;;18.47;100.00
46836;BME280;32573;51.290;6.926;2022-07-01T10:37:13;100419.94;;;18.51;100.00
46836;BME280;32573;51.290;6.926;2022-07-01T10:39:57;100427.00;;;18.63;100.00
46836;BME280;32573;51.290;6.926;2022-07-01T10:42:31;100419.91;;;18.72;100.00
46836;BME280;32573;51.290;6.926;2022-07-01T10:45:06;100419.91;;;18.82;100.00
46836;BME280;32573;51.290;6.926;2022-07-01T10:47:38;100415.50;;;18.93;100.00
46836;BME280;32573;51.290;6.926;2022-07-01T10:50:10;100419.03;;;19.00;100.00
46836;BME280;32573;51.290;6.926;2022-07-01T10:52:58;100427.81;;;19.09;100.00
46836;BME280;32573;51.290;6.926;2022-07-01T10:55:36;100417.19;;;19.15;100.00
46836;BME280;32573;51.290;6.926;2022-07-01T10:58:05;100421.63;;;19.15;100.00
46836;BME280;32573;51.290;6.926;2022-07-01T11:00:41;100416.28;;;19.21;100.00
46836;BME280;32573;51.290;6.926;2022-07-01T11:03:20;100413.59;;;19.35;100.00
46836;BME280;32573;51.290;6.926;2022-07-01T11:05:54;100422.38;;;19.46;100.00
46836;BME280;32573;51.290;6.926;2022-07-01T11:08:26;100425.03;;;19.49;100.00
46836;BME280;32573;51.290;6.926;2022-07-01T11:11:00;100425.94;;;19.50;100.00
46836;BME280;32573;51.290;6.926;2022-07-01T11:13:32;100420.63;;;19.45;100.00
46836;BME280;32573;51.290;6.926;2022-07-01T11:16:00;100421.50;;;19.50;100.00
46836;BME280;32573;51.290;6.926;2022-07-01T11:18:32;100420.56;;;19.54;100.00
46836;BME280;32573;51.290;6.926;2022-07-01T11:21:06;100425.03;;;19.51;100.00
46836;BME280;32573;51.290;6.926;2022-07-01T11:23:35;100412.66;;;19.45;100.00
46836;BME280;32573;51.290;6.926;2022-07-01T11:26:20;100415.34;;;19.36;100.00
46836;BME280;32573;51.290;6.926;2022-07-01T11:28:49;100405.63;;;19.29;100.00
46836;BME280;32573;51.290;6.926;2022-07-01T11:31:29;100404.78;;;19.24;100.00
46836;BME280;32573;51.290;6.926;2022-07-01T11:33:58;100403.03;;;19.23;100.00
46836;BME280;32573;51.290;6.926;2022-07-01T11:36:28;100396.78;;;19.27;100.00
46836;BME280;32573;51.290;6.926;2022-07-01T11:39:14;100387.00;;;19.41;100.00
46836;BME280;32573;51.290;6.926;2022-07-01T11:41:56;100397.56;;;19.59;100.00
46836;BME280;32573;51.290;6.926;2022-07-01T11:44:32;100392.19;;;19.66;100.00
46836;BME280;32573;51.290;6.926;2022-07-01T11:47:01;100386.88;;;19.75;100.00
46836;BME280;32573;51.290;6.926;2022-07-01T11:49:30;100394.81;;;19.76;100.00
46836;BME280;32573;51.290;6.926;2022-07-01T11:52:04;100389.53;;;19.72;100.00
46836;BME280;32573;51.290;6.926;2022-07-01T11:54:37;100390.41;;;19.74;100.00
46836;BME280;32573;51.290;6.926;2022-07-01T11:57:10;100382.38;;;19.88;100.00
46836;BME280;32573;51.290;6.926;2022-07-01T11:59:39;100389.38;;;19.96;100.00
46836;BME280;32573;51.290;6.926;2022-07-01T12:02:12;100396.47;;;19.97;100.00
46836;BME280;32573;51.290;6.926;2022-07-01T12:04:45;100388.44;;;20.03;100.00
46836;BME280;32573;51.290;6.926;2022-07-01T12:07:16;100391.88;;;20.18;100.00
46836;BME280;32573;51.290;6.926;2022-07-01T12:09:48;100386.50;;;20.27;100.00
46836;BME280;32573;51.290;6.926;2022-07-01T12:12:18;100381.97;;;20.40;100.00
46836;BME280;32573;51.290;6.926;2022-07-01T12:14:50;100401.34;;;20.56;100.00
46836;BME280;32573;51.290;6.926;2022-07-01T12:17:20;100396.91;;;20.52;100.00
46836;BME280;32573;51.290;6.926;2022-07-01T12:19:50;100383.66;;;20.47;100.00
46836;BME280;32573;51.290;6.926;2022-07-01T12:22:22;100395.16;;;20.51;100.00
46836;BME280;32573;51.290;6.926;2022-07-01T12:24:53;100389.84;;;20.51;100.00
46836;BME280;32573;51.290;6.926;2022-07-01T12:27:33;100393.41;;;20.46;100.00
46836;BME280;32573;51.290;6.926;2022-07-01T12:30:03;100395.22;;;20.44;100.00
46836;BME280;32573;51.290;6.926;2022-07-01T12:32:37;100400.50;;;20.47;100.00
46836;BME280;32573;51.290;6.926;2022-07-01T12:35:07;100401.22;;;20.66;100.00
46836;BME280;32573;51.290;6.926;2022-07-01T12:37:54;100396.75;;;20.73;100.00
46836;BME280;32573;51.290;6.926;2022-07-01T12:40:24;100389.59;;;20.78;100.00
46836;BME280;32573;51.290;6.926;2022-07-01T12:42:56;100397.56;;;20.78;100.00
46836;BME280;32573;51.290;6.926;2022-07-01T12:45:27;100394.03;;;20.78;100.00
46836;BME280;32573;51.290;6.926;2022-07-01T12:47:57;100382.44;;;20.83;100.00
46836;BME280;32573;51.290;6.926;2022-07-01T12:50:27;100396.53;;;20.92;100.00
46836;BME280;32573;51.290;6.926;2022-07-01T12:52:59;100395.53;;;21.03;100.00
46836;BME280;32573;51.290;6.926;2022-07-01T12:55:31;100391.81;;;21.20;100.00
46836;BME280;32573;51.290;6.926;2022-07-01T12:58:05;100380.25;;;21.22;100.00
46836;BME280;32573;51.290;6.926;2022-07-01T13:00:37;100376.47;;;21.42;100.00